sensor_id;sensor_type;location;lat;lon;timestamp;temperature;humidity
67147;DHT22;54061;52.036;5.558;2022-07-09T00:02:13;18.20;72.80
67147;DHT22;54061;52.036;5.558;2022-07-09T00:04:39;18.10;72.90
67147;DHT22;54061;52.036;5.558;2022-07-09T00:07:04;18.10;73.10
67147;DHT22;54061;52.036;5.558;2022-07-09T00:09:30;18.00;73.00
67147;DHT22;54061;52.036;5.558;2022-07-09T00:11:55;18.10;73.10
67147;DHT22;54061;52.036;5.558;2022-07-09T00:14:22;18.10;72.90
67147;DHT22;54061;52.036;5.558;2022-07-09T00:16:47;18.00;73.10
67147;DHT22;54061;52.036;5.558;2022-07-09T00:19:13;18.00;73.20
67147;DHT22;54061;52.036;5.558;2022-07-09T00:21:39;18.00;73.20
67147;DHT22;54061;52.036;5.558;2022-07-09T00:24:05;18.00;73.40
67147;DHT22;54061;52.036;5.558;2022-07-09T00:26:31;17.90;73.40
67147;DHT22;54061;52.036;5.558;2022-07-09T00:28:56;17.90;73.30
67147;DHT22;54061;52.036;5.558;2022-07-09T00:31:22;17.90;73.40
67147;DHT22;54061;52.036;5.558;2022-07-09T00:33:47;17.90;73.40
67147;DHT22;54061;52.036;5.558;2022-07-09T00:36:13;17.90;73.30
67147;DHT22;54061;52.036;5.558;2022-07-09T00:38:39;17.90;73.20
67147;DHT22;54061;52.036;5.558;2022-07-09T00:41:04;17.90;73.10
67147;DHT22;54061;52.036;5.558;2022-07-09T00:43:30;17.90;73.20
67147;DHT22;54061;52.036;5.558;2022-07-09T00:45:56;17.90;73.20
67147;DHT22;54061;52.036;5.558;2022-07-09T00:48:21;17.90;73.30
67147;DHT22;54061;52.036;5.558;2022-07-09T00:50:47;17.90;73.20
67147;DHT22;54061;52.036;5.558;2022-07-09T00:53:15;17.80;73.10
67147;DHT22;54061;52.036;5.558;2022-07-09T00:55:41;17.90;73.20
67147;DHT22;54061;52.036;5.558;2022-07-09T00:58:11;17.90;73.20
67147;DHT22;54061;52.036;5.558;2022-07-09T01:00:37;17.90;73.20
67147;DHT22;54061;52.036;5.558;2022-07-09T01:03:03;17.90;73.10
67147;DHT22;54061;52.036;5.558;2022-07-09T01:05:29;17.90;73.30
67147;DHT22;54061;52.036;5.558;2022-07-09T01:08:02;17.80;73.30
67147;DHT22;54061;52.036;5.558;2022-07-09T01:10:28;17.80;73.40
67147;DHT22;54061;52.036;5.558;2022-07-09T01:12:54;17.80;73.90
67147;DHT22;54061;52.036;5.558;2022-07-09T01:15:20;17.60;74.70
67147;DHT22;54061;52.036;5.558;2022-07-09T01:17:46;17.30;75.60
67147;DHT22;54061;52.036;5.558;2022-07-09T01:20:11;17.20;76.00
67147;DHT22;54061;52.036;5.558;2022-07-09T01:22:37;17.20;75.70
67147;DHT22;54061;52.036;5.558;2022-07-09T01:25:05;17.20;76.20
67147;DHT22;54061;52.036;5.558;2022-07-09T01:27:37;17.10;77.30
67147;DHT22;54061;52.036;5.558;2022-07-09T01:30:04;16.90;76.70
67147;DHT22;54061;52.036;5.558;2022-07-09T01:32:31;16.90;77.20
67147;DHT22;54061;52.036;5.558;2022-07-09T01:34:56;17.00;76.80
67147;DHT22;54061;52.036;5.558;2022-07-09T01:37:22;17.10;76.20
67147;DHT22;54061;52.036;5.558;2022-07-09T01:39:47;17.10;75.70
67147;DHT22;54061;52.036;5.558;2022-07-09T01:42:16;17.10;75.50
67147;DHT22;54061;52.036;5.558;2022-07-09T01:44:42;17.20;75.70
67147;DHT22;54061;52.036;5.558;2022-07-09T01:47:08;17.20;75.50
67147;DHT22;54061;52.036;5.558;2022-07-09T01:49:33;17.20;75.50
67147;DHT22;54061;52.036;5.558;2022-07-09T01:51:59;17.20;75.40
67147;DHT22;54061;52.036;5.558;2022-07-09T01:54:24;17.10;75.60
67147;DHT22;54061;52.036;5.558;2022-07-09T01:56:50;17.10;75.90
67147;DHT22;54061;52.036;5.558;2022-07-09T01:59:15;17.10;76.30
67147;DHT22;54061;52.036;5.558;2022-07-09T02:01:41;17.10;76.20
67147;DHT22;54061;52.036;5.558;2022-07-09T02:04:06;17.10;76.20
67147;DHT22;54061;52.036;5.558;2022-07-09T02:06:32;17.10;76.20
67147;DHT22;54061;52.036;5.558;2022-07-09T02:08:57;17.00;76.30
67147;DHT22;54061;52.036;5.558;2022-07-09T02:11:23;17.00;76.40
67147;DHT22;54061;52.036;5.558;2022-07-09T02:13:48;17.00;76.50
67147;DHT22;54061;52.036;5.558;2022-07-09T02:16:14;16.90;76.60
67147;DHT22;54061;52.036;5.558;2022-07-09T02:18:39;16.90;76.70
67147;DHT22;54061;52.036;5.558;2022-07-09T02:21:05;16.90;76.50
67147;DHT22;54061;52.036;5.558;2022-07-09T02:23:32;16.90;76.50
67147;DHT22;54061;52.036;5.558;2022-07-09T02:25:58;17.00;76.50
67147;DHT22;54061;52.036;5.558;2022-07-09T02:28:23;17.00;76.10
67147;DHT22;54061;52.036;5.558;2022-07-09T02:30:49;17.00;76.00
67147;DHT22;54061;52.036;5.558;2022-07-09T02:33:14;17.10;75.70
67147;DHT22;54061;52.036;5.558;2022-07-09T02:35:40;17.10;75.60
67147;DHT22;54061;52.036;5.558;2022-07-09T02:38:05;17.10;75.70
67147;DHT22;54061;52.036;5.558;2022-07-09T02:40:31;17.10;75.80
67147;DHT22;54061;52.036;5.558;2022-07-09T02:42:56;17.00;76.10
67147;DHT22;54061;52.036;5.558;2022-07-09T02:45:22;17.00;76.10
67147;DHT22;54061;52.036;5.558;2022-07-09T02:47:47;17.00;76.00
67147;DHT22;54061;52.036;5.558;2022-07-09T02:50:13;17.00;75.90
67147;DHT22;54061;52.036;5.558;2022-07-09T02:52:38;17.00;75.90
67147;DHT22;54061;52.036;5.558;2022-07-09T02:55:04;17.00;75.80
67147;DHT22;54061;52.036;5.558;2022-07-09T02:57:30;17.00;76.20
67147;DHT22;54061;52.036;5.558;2022-07-09T02:59:55;17.00;76.20
67147;DHT22;54061;52.036;5.558;2022-07-09T03:02:21;17.00;76.30
67147;DHT22;54061;52.036;5.558;2022-07-09T03:04:46;17.00;76.30
67147;DHT22;54061;52.036;5.558;2022-07-09T03:07:12;17.00;76.50
67147;DHT22;54061;52.036;5.558;2022-07-09T03:09:39;17.00;76.20
67147;DHT22;54061;52.036;5.558;2022-07-09T03:12:05;17.00;76.10
67147;DHT22;54061;52.036;5.558;2022-07-09T03:14:31;17.10;76.20
67147;DHT22;54061;52.036;5.558;2022-07-09T03:16:57;17.10;76.20
67147;DHT22;54061;52.036;5.558;2022-07-09T03:19:22;17.10;76.00
67147;DHT22;54061;52.036;5.558;2022-07-09T03:21:48;17.10;76.30
67147;DHT22;54061;52.036;5.558;2022-07-09T03:24:13;17.10;76.80
67147;DHT22;54061;52.036;5.558;2022-07-09T03:26:39;17.00;77.60
67147;DHT22;54061;52.036;5.558;2022-07-09T03:29:04;16.90;78.20
67147;DHT22;54061;52.036;5.558;2022-07-09T03:31:30;16.80;78.00
67147;DHT22;54061;52.036;5.558;2022-07-09T03:33:56;16.90;77.80
67147;DHT22;54061;52.036;5.558;2022-07-09T03:36:21;16.90;77.70
67147;DHT22;54061;52.036;5.558;2022-07-09T03:38:47;17.00;77.40
67147;DHT22;54061;52.036;5.558;2022-07-09T03:41:12;17.00;77.30
67147;DHT22;54061;52.036;5.558;2022-07-09T03:43:38;17.10;77.10
67147;DHT22;54061;52.036;5.558;2022-07-09T03:46:03;17.10;76.90
67147;DHT22;54061;52.036;5.558;2022-07-09T03:48:29;17.20;77.00
67147;DHT22;54061;52.036;5.558;2022-07-09T03:50:55;17.20;76.90
67147;DHT22;54061;52.036;5.558;2022-07-09T03:53:21;17.20;76.80
67147;DHT22;54061;52.036;5.558;2022-07-09T03:55:46;17.20;77.10
67147;DHT22;54061;52.036;5.558;2022-07-09T03:58:12;17.20;77.20
67147;DHT22;54061;52.036;5.558;2022-07-09T04:00:37;17.20;77.30
67147;DHT22;54061;52.036;5.558;2022-07-09T04:03:03;17.20;77.40
67147;DHT22;54061;52.036;5.558;2022-07-09T04:05:28;17.10;77.30
67147;DHT22;54061;52.036;5.558;2022-07-09T04:07:54;17.20;77.40
67147;DHT22;54061;52.036;5.558;2022-07-09T04:10:20;17.20;77.40
67147;DHT22;54061;52.036;5.558;2022-07-09T04:12:46;17.20;78.00
67147;DHT22;54061;52.036;5.558;2022-07-09T04:15:11;17.10;78.30
67147;DHT22;54061;52.036;5.558;2022-07-09T04:17:37;17.00;78.10
67147;DHT22;54061;52.036;5.558;2022-07-09T04:20:03;17.10;77.90
67147;DHT22;54061;52.036;5.558;2022-07-09T04:22:29;17.10;77.80
67147;DHT22;54061;52.036;5.558;2022-07-09T04:24:54;17.10;77.90
67147;DHT22;54061;52.036;5.558;2022-07-09T04:27:20;17.10;77.90
67147;DHT22;54061;52.036;5.558;2022-07-09T04:29:45;17.10;77.80
67147;DHT22;54061;52.036;5.558;2022-07-09T04:32:11;17.10;77.80
67147;DHT22;54061;52.036;5.558;2022-07-09T04:34:38;17.20;77.70
67147;DHT22;54061;52.036;5.558;2022-07-09T04:37:04;17.20;77.70
67147;DHT22;54061;52.036;5.558;2022-07-09T04:39:29;17.20;78.00
67147;DHT22;54061;52.036;5.558;2022-07-09T04:41:55;17.10;79.00
67147;DHT22;54061;52.036;5.558;2022-07-09T04:44:20;17.10;78.90
67147;DHT22;54061;52.036;5.558;2022-07-09T04:46:46;17.10;79.20
67147;DHT22;54061;52.036;5.558;2022-07-09T04:49:11;17.00;80.20
67147;DHT22;54061;52.036;5.558;2022-07-09T04:51:43;17.00;80.40
67147;DHT22;54061;52.036;5.558;2022-07-09T04:54:08;17.00;80.80
67147;DHT22;54061;52.036;5.558;2022-07-09T04:56:34;17.00;80.20
67147;DHT22;54061;52.036;5.558;2022-07-09T04:59:00;17.00;80.00
67147;DHT22;54061;52.036;5.558;2022-07-09T05:01:27;17.10;80.20
67147;DHT22;54061;52.036;5.558;2022-07-09T05:03:54;17.10;80.50
67147;DHT22;54061;52.036;5.558;2022-07-09T05:06:20;17.10;80.80
67147;DHT22;54061;52.036;5.558;2022-07-09T05:08:46;17.10;80.40
67147;DHT22;54061;52.036;5.558;2022-07-09T05:11:13;17.20;80.30
67147;DHT22;54061;52.036;5.558;2022-07-09T05:13:39;17.20;80.40
67147;DHT22;54061;52.036;5.558;2022-07-09T05:16:08;17.20;81.00
67147;DHT22;54061;52.036;5.558;2022-07-09T05:18:34;17.30;80.50
67147;DHT22;54061;52.036;5.558;2022-07-09T05:21:00;17.30;80.30
67147;DHT22;54061;52.036;5.558;2022-07-09T05:23:25;17.40;80.20
67147;DHT22;54061;52.036;5.558;2022-07-09T05:25:51;17.40;80.10
67147;DHT22;54061;52.036;5.558;2022-07-09T05:28:16;17.40;79.80
67147;DHT22;54061;52.036;5.558;2022-07-09T05:30:42;17.50;79.70
67147;DHT22;54061;52.036;5.558;2022-07-09T05:33:12;17.60;79.80
67147;DHT22;54061;52.036;5.558;2022-07-09T05:35:37;17.70;79.80
67147;DHT22;54061;52.036;5.558;2022-07-09T05:38:03;17.70;79.70
67147;DHT22;54061;52.036;5.558;2022-07-09T05:40:29;17.80;79.60
67147;DHT22;54061;52.036;5.558;2022-07-09T05:42:55;17.90;79.90
67147;DHT22;54061;52.036;5.558;2022-07-09T05:45:20;18.00;79.70
67147;DHT22;54061;52.036;5.558;2022-07-09T05:47:46;18.00;79.80
67147;DHT22;54061;52.036;5.558;2022-07-09T05:50:11;18.10;79.80
67147;DHT22;54061;52.036;5.558;2022-07-09T05:52:37;18.20;79.60
67147;DHT22;54061;52.036;5.558;2022-07-09T05:55:03;18.30;79.50
67147;DHT22;54061;52.036;5.558;2022-07-09T05:57:29;18.30;79.60
67147;DHT22;54061;52.036;5.558;2022-07-09T05:59:55;18.30;79.70
67147;DHT22;54061;52.036;5.558;2022-07-09T06:02:21;18.30;79.90
67147;DHT22;54061;52.036;5.558;2022-07-09T06:04:47;18.40;80.00
67147;DHT22;54061;52.036;5.558;2022-07-09T06:07:12;18.40;79.70
67147;DHT22;54061;52.036;5.558;2022-07-09T06:09:38;18.60;79.60
67147;DHT22;54061;52.036;5.558;2022-07-09T06:12:04;18.60;79.50
67147;DHT22;54061;52.036;5.558;2022-07-09T06:14:30;18.60;79.50
67147;DHT22;54061;52.036;5.558;2022-07-09T06:16:55;18.70;79.70
67147;DHT22;54061;52.036;5.558;2022-07-09T06:19:21;18.70;79.60
67147;DHT22;54061;52.036;5.558;2022-07-09T06:21:47;18.70;80.00
67147;DHT22;54061;52.036;5.558;2022-07-09T06:24:12;18.70;80.00
67147;DHT22;54061;52.036;5.558;2022-07-09T06:26:38;18.60;80.10
67147;DHT22;54061;52.036;5.558;2022-07-09T06:29:03;18.70;80.10
67147;DHT22;54061;52.036;5.558;2022-07-09T06:31:29;18.70;79.90
67147;DHT22;54061;52.036;5.558;2022-07-09T06:33:54;18.80;79.90
67147;DHT22;54061;52.036;5.558;2022-07-09T06:36:20;18.90;80.00
67147;DHT22;54061;52.036;5.558;2022-07-09T06:38:45;18.80;80.20
67147;DHT22;54061;52.036;5.558;2022-07-09T06:41:31;18.90;80.20
67147;DHT22;54061;52.036;5.558;2022-07-09T06:43:57;19.00;80.00
67147;DHT22;54061;52.036;5.558;2022-07-09T06:46:22;19.00;79.70
67147;DHT22;54061;52.036;5.558;2022-07-09T06:48:48;19.00;79.60
67147;DHT22;54061;52.036;5.558;2022-07-09T06:51:13;19.00;79.70
67147;DHT22;54061;52.036;5.558;2022-07-09T06:53:39;19.00;79.70
67147;DHT22;54061;52.036;5.558;2022-07-09T06:56:05;19.10;79.70
67147;DHT22;54061;52.036;5.558;2022-07-09T06:58:30;19.10;79.80
67147;DHT22;54061;52.036;5.558;2022-07-09T07:00:56;19.20;79.70
67147;DHT22;54061;52.036;5.558;2022-07-09T07:03:21;19.30;79.70
67147;DHT22;54061;52.036;5.558;2022-07-09T07:05:47;19.40;79.50
67147;DHT22;54061;52.036;5.558;2022-07-09T07:08:12;19.40;79.60
67147;DHT22;54061;52.036;5.558;2022-07-09T07:10:38;19.40;79.60
67147;DHT22;54061;52.036;5.558;2022-07-09T07:13:03;19.40;79.70
67147;DHT22;54061;52.036;5.558;2022-07-09T07:15:29;19.40;79.70
67147;DHT22;54061;52.036;5.558;2022-07-09T07:17:54;19.50;79.70
67147;DHT22;54061;52.036;5.558;2022-07-09T07:20:20;19.60;79.50
67147;DHT22;54061;52.036;5.558;2022-07-09T07:22:48;19.70;79.40
67147;DHT22;54061;52.036;5.558;2022-07-09T07:25:14;19.70;79.10
67147;DHT22;54061;52.036;5.558;2022-07-09T07:27:39;19.80;79.40
67147;DHT22;54061;52.036;5.558;2022-07-09T07:30:05;19.80;79.10
67147;DHT22;54061;52.036;5.558;2022-07-09T07:32:31;19.90;79.10
67147;DHT22;54061;52.036;5.558;2022-07-09T07:34:56;19.90;78.80
67147;DHT22;54061;52.036;5.558;2022-07-09T07:37:22;20.10;78.70
67147;DHT22;54061;52.036;5.558;2022-07-09T07:39:47;20.10;78.60
67147;DHT22;54061;52.036;5.558;2022-07-09T07:42:14;20.20;78.60
67147;DHT22;54061;52.036;5.558;2022-07-09T07:44:40;20.20;78.40
67147;DHT22;54061;52.036;5.558;2022-07-09T07:47:06;20.30;78.10
67147;DHT22;54061;52.036;5.558;2022-07-09T07:49:32;20.50;78.10
67147;DHT22;54061;52.036;5.558;2022-07-09T07:51:58;20.50;78.10
67147;DHT22;54061;52.036;5.558;2022-07-09T07:54:23;20.70;77.80
67147;DHT22;54061;52.036;5.558;2022-07-09T07:56:49;20.80;77.60
67147;DHT22;54061;52.036;5.558;2022-07-09T07:59:16;20.90;77.60
67147;DHT22;54061;52.036;5.558;2022-07-09T08:01:41;20.80;78.00
67147;DHT22;54061;52.036;5.558;2022-07-09T08:04:07;20.80;78.20
67147;DHT22;54061;52.036;5.558;2022-07-09T08:06:33;20.90;78.00
67147;DHT22;54061;52.036;5.558;2022-07-09T08:08:59;20.90;78.00
67147;DHT22;54061;52.036;5.558;2022-07-09T08:11:25;20.80;78.30
67147;DHT22;54061;52.036;5.558;2022-07-09T08:13:50;20.90;78.60
67147;DHT22;54061;52.036;5.558;2022-07-09T08:16:16;21.00;78.40
67147;DHT22;54061;52.036;5.558;2022-07-09T08:18:42;21.10;78.20
67147;DHT22;54061;52.036;5.558;2022-07-09T08:21:07;21.10;78.10
67147;DHT22;54061;52.036;5.558;2022-07-09T08:23:39;21.10;78.00
67147;DHT22;54061;52.036;5.558;2022-07-09T08:26:21;21.10;78.10
67147;DHT22;54061;52.036;5.558;2022-07-09T08:28:48;21.10;78.10
67147;DHT22;54061;52.036;5.558;2022-07-09T08:31:15;21.10;78.20
67147;DHT22;54061;52.036;5.558;2022-07-09T08:33:40;21.20;78.10
67147;DHT22;54061;52.036;5.558;2022-07-09T08:36:06;21.20;77.80
67147;DHT22;54061;52.036;5.558;2022-07-09T08:38:32;21.20;77.70
67147;DHT22;54061;52.036;5.558;2022-07-09T08:41:00;21.20;77.80
67147;DHT22;54061;52.036;5.558;2022-07-09T08:43:26;21.20;77.70
67147;DHT22;54061;52.036;5.558;2022-07-09T08:45:56;21.30;77.80
67147;DHT22;54061;52.036;5.558;2022-07-09T08:48:21;21.30;77.70
67147;DHT22;54061;52.036;5.558;2022-07-09T08:50:48;21.20;77.90
67147;DHT22;54061;52.036;5.558;2022-07-09T08:53:17;21.10;78.00
67147;DHT22;54061;52.036;5.558;2022-07-09T08:55:43;21.20;78.10
67147;DHT22;54061;52.036;5.558;2022-07-09T08:58:13;21.20;78.00
67147;DHT22;54061;52.036;5.558;2022-07-09T09:00:40;21.20;77.90
67147;DHT22;54061;52.036;5.558;2022-07-09T09:03:06;21.20;77.70
67147;DHT22;54061;52.036;5.558;2022-07-09T09:05:32;21.40;77.60
67147;DHT22;54061;52.036;5.558;2022-07-09T09:07:58;21.50;77.30
67147;DHT22;54061;52.036;5.558;2022-07-09T09:10:25;21.60;77.00
67147;DHT22;54061;52.036;5.558;2022-07-09T09:13:01;21.60;76.80
67147;DHT22;54061;52.036;5.558;2022-07-09T09:15:27;21.60;76.70
67147;DHT22;54061;52.036;5.558;2022-07-09T09:17:54;21.50;76.70
67147;DHT22;54061;52.036;5.558;2022-07-09T09:20:20;21.40;76.90
67147;DHT22;54061;52.036;5.558;2022-07-09T09:22:53;21.40;77.10
67147;DHT22;54061;52.036;5.558;2022-07-09T09:25:20;21.40;77.20
67147;DHT22;54061;52.036;5.558;2022-07-09T09:27:59;21.40;77.10
67147;DHT22;54061;52.036;5.558;2022-07-09T09:30:26;21.40;76.90
67147;DHT22;54061;52.036;5.558;2022-07-09T09:33:14;21.40;76.70
67147;DHT22;54061;52.036;5.558;2022-07-09T09:35:44;21.50;75.40
67147;DHT22;54061;52.036;5.558;2022-07-09T09:38:10;21.50;76.20
67147;DHT22;54061;52.036;5.558;2022-07-09T09:40:36;21.80;76.50
67147;DHT22;54061;52.036;5.558;2022-07-09T09:43:03;22.40;76.60
67147;DHT22;54061;52.036;5.558;2022-07-09T09:45:28;22.80;76.70
67147;DHT22;54061;52.036;5.558;2022-07-09T09:47:54;23.30;76.60
67147;DHT22;54061;52.036;5.558;2022-07-09T09:50:22;23.30;75.70
67147;DHT22;54061;52.036;5.558;2022-07-09T09:52:50;23.20;75.00
67147;DHT22;54061;52.036;5.558;2022-07-09T09:55:17;23.10;75.00
67147;DHT22;54061;52.036;5.558;2022-07-09T09:57:43;23.00;75.00
67147;DHT22;54061;52.036;5.558;2022-07-09T10:00:11;22.90;74.60
67147;DHT22;54061;52.036;5.558;2022-07-09T10:02:40;22.80;74.60
67147;DHT22;54061;52.036;5.558;2022-07-09T10:05:07;22.90;75.30
67147;DHT22;54061;52.036;5.558;2022-07-09T10:07:33;23.10;75.00
67147;DHT22;54061;52.036;5.558;2022-07-09T10:09:59;23.10;74.30
67147;DHT22;54061;52.036;5.558;2022-07-09T10:12:33;23.10;73.50
67147;DHT22;54061;52.036;5.558;2022-07-09T10:14:59;23.00;73.70
67147;DHT22;54061;52.036;5.558;2022-07-09T10:17:26;22.90;73.60
67147;DHT22;54061;52.036;5.558;2022-07-09T10:19:56;22.80;73.00
67147;DHT22;54061;52.036;5.558;2022-07-09T10:22:37;22.70;73.00
67147;DHT22;54061;52.036;5.558;2022-07-09T10:25:06;22.70;72.60
67147;DHT22;54061;52.036;5.558;2022-07-09T10:27:46;22.60;72.70
67147;DHT22;54061;52.036;5.558;2022-07-09T10:30:23;22.40;71.90
67147;DHT22;54061;52.036;5.558;2022-07-09T10:35:28;22.50;72.10
67147;DHT22;54061;52.036;5.558;2022-07-09T10:37:54;22.50;72.40
67147;DHT22;54061;52.036;5.558;2022-07-09T10:40:21;22.50;71.90
67147;DHT22;54061;52.036;5.558;2022-07-09T10:43:01;22.50;71.80
67147;DHT22;54061;52.036;5.558;2022-07-09T10:45:36;22.50;70.90
67147;DHT22;54061;52.036;5.558;2022-07-09T10:48:03;22.50;71.10
67147;DHT22;54061;52.036;5.558;2022-07-09T10:50:31;22.70;71.50
67147;DHT22;54061;52.036;5.558;2022-07-09T10:52:58;23.00;71.60
67147;DHT22;54061;52.036;5.558;2022-07-09T10:55:26;23.20;71.60
67147;DHT22;54061;52.036;5.558;2022-07-09T10:57:53;23.30;71.30
67147;DHT22;54061;52.036;5.558;2022-07-09T11:00:22;23.60;71.30
67147;DHT22;54061;52.036;5.558;2022-07-09T11:02:56;23.80;71.20
67147;DHT22;54061;52.036;5.558;2022-07-09T11:05:25;24.10;71.50
67147;DHT22;54061;52.036;5.558;2022-07-09T11:08:05;24.40;72.50
67147;DHT22;54061;52.036;5.558;2022-07-09T11:10:33;24.70;71.50
67147;DHT22;54061;52.036;5.558;2022-07-09T11:13:00;24.90;71.90
67147;DHT22;54061;52.036;5.558;2022-07-09T11:15:28;25.00;71.20
67147;DHT22;54061;52.036;5.558;2022-07-09T11:20:44;25.00;69.80
67147;DHT22;54061;52.036;5.558;2022-07-09T11:23:14;25.10;68.00
67147;DHT22;54061;52.036;5.558;2022-07-09T11:25:41;25.10;71.20
67147;DHT22;54061;52.036;5.558;2022-07-09T11:28:07;25.10;71.60
67147;DHT22;54061;52.036;5.558;2022-07-09T11:30:33;25.00;70.20
67147;DHT22;54061;52.036;5.558;2022-07-09T11:32:59;24.60;70.30
67147;DHT22;54061;52.036;5.558;2022-07-09T11:35:33;24.70;71.30
67147;DHT22;54061;52.036;5.558;2022-07-09T11:38:01;24.90;70.00
67147;DHT22;54061;52.036;5.558;2022-07-09T11:40:27;24.90;68.80
67147;DHT22;54061;52.036;5.558;2022-07-09T11:42:53;24.90;68.10
67147;DHT22;54061;52.036;5.558;2022-07-09T11:45:24;24.90;67.40
67147;DHT22;54061;52.036;5.558;2022-07-09T11:48:00;25.00;65.90
67147;DHT22;54061;52.036;5.558;2022-07-09T11:50:26;24.90;65.80
67147;DHT22;54061;52.036;5.558;2022-07-09T11:52:53;24.60;65.80
67147;DHT22;54061;52.036;5.558;2022-07-09T11:55:20;24.60;65.40
67147;DHT22;54061;52.036;5.558;2022-07-09T11:57:56;24.40;63.80
67147;DHT22;54061;52.036;5.558;2022-07-09T12:00:28;24.30;63.30
67147;DHT22;54061;52.036;5.558;2022-07-09T12:02:54;24.40;63.10
67147;DHT22;54061;52.036;5.558;2022-07-09T12:05:26;24.60;64.10
67147;DHT22;54061;52.036;5.558;2022-07-09T12:07:52;24.70;63.20
67147;DHT22;54061;52.036;5.558;2022-07-09T12:10:29;25.00;63.50
67147;DHT22;54061;52.036;5.558;2022-07-09T12:12:54;25.10;60.70
67147;DHT22;54061;52.036;5.558;2022-07-09T12:15:20;25.10;61.90
67147;DHT22;54061;52.036;5.558;2022-07-09T12:17:51;24.90;61.30
67147;DHT22;54061;52.036;5.558;2022-07-09T12:20:17;24.90;58.00
67147;DHT22;54061;52.036;5.558;2022-07-09T12:22:43;24.90;61.70
67147;DHT22;54061;52.036;5.558;2022-07-09T12:25:08;25.00;61.30
67147;DHT22;54061;52.036;5.558;2022-07-09T12:27:34;25.20;60.60
67147;DHT22;54061;52.036;5.558;2022-07-09T12:29:59;25.30;60.20
67147;DHT22;54061;52.036;5.558;2022-07-09T12:32:25;25.30;59.80
67147;DHT22;54061;52.036;5.558;2022-07-09T12:34:50;25.30;58.40
67147;DHT22;54061;52.036;5.558;2022-07-09T12:37:16;25.20;59.30
67147;DHT22;54061;52.036;5.558;2022-07-09T12:39:41;25.30;59.30
67147;DHT22;54061;52.036;5.558;2022-07-09T12:42:07;25.40;58.90
67147;DHT22;54061;52.036;5.558;2022-07-09T12:44:32;25.60;59.00
67147;DHT22;54061;52.036;5.558;2022-07-09T12:46:58;25.70;58.40
67147;DHT22;54061;52.036;5.558;2022-07-09T12:49:24;25.70;58.20
67147;DHT22;54061;52.036;5.558;2022-07-09T12:51:49;25.70;57.90
67147;DHT22;54061;52.036;5.558;2022-07-09T12:54:15;25.80;57.70
67147;DHT22;54061;52.036;5.558;2022-07-09T12:56:40;25.80;57.00
67147;DHT22;54061;52.036;5.558;2022-07-09T12:59:06;25.70;57.30
67147;DHT22;54061;52.036;5.558;2022-07-09T13:01:31;25.70;57.80
67147;DHT22;54061;52.036;5.558;2022-07-09T13:03:57;25.90;57.60
67147;DHT22;54061;52.036;5.558;2022-07-09T13:06:22;25.80;56.80
67147;DHT22;54061;52.036;5.558;2022-07-09T13:08:58;25.70;57.00
67147;DHT22;54061;52.036;5.558;2022-07-09T13:11:26;25.70;56.80
67147;DHT22;54061;52.036;5.558;2022-07-09T13:13:52;25.50;56.90
67147;DHT22;54061;52.036;5.558;2022-07-09T13:16:18;25.50;57.10
67147;DHT22;54061;52.036;5.558;2022-07-09T13:18:43;25.60;56.20
67147;DHT22;54061;52.036;5.558;2022-07-09T13:21:09;25.30;56.50
67147;DHT22;54061;52.036;5.558;2022-07-09T13:23:35;25.20;56.90
67147;DHT22;54061;52.036;5.558;2022-07-09T13:26:00;25.30;56.70
67147;DHT22;54061;52.036;5.558;2022-07-09T13:28:26;25.40;56.60
67147;DHT22;54061;52.036;5.558;2022-07-09T13:30:51;25.50;56.30
67147;DHT22;54061;52.036;5.558;2022-07-09T13:33:17;25.50;56.20
67147;DHT22;54061;52.036;5.558;2022-07-09T13:35:42;25.40;55.30
67147;DHT22;54061;52.036;5.558;2022-07-09T13:38:08;25.50;55.90
67147;DHT22;54061;52.036;5.558;2022-07-09T13:40:34;25.60;55.60
67147;DHT22;54061;52.036;5.558;2022-07-09T13:42:59;25.70;54.70
67147;DHT22;54061;52.036;5.558;2022-07-09T13:45:25;25.70;54.70
67147;DHT22;54061;52.036;5.558;2022-07-09T13:47:53;25.60;54.80
67147;DHT22;54061;52.036;5.558;2022-07-09T13:50:18;25.50;54.90
67147;DHT22;54061;52.036;5.558;2022-07-09T13:52:44;25.70;55.50
67147;DHT22;54061;52.036;5.558;2022-07-09T13:55:09;25.90;55.20
67147;DHT22;54061;52.036;5.558;2022-07-09T13:57:35;26.10;54.90
67147;DHT22;54061;52.036;5.558;2022-07-09T14:00:01;26.10;55.00
67147;DHT22;54061;52.036;5.558;2022-07-09T14:02:26;25.90;55.10
67147;DHT22;54061;52.036;5.558;2022-07-09T14:04:53;25.60;55.40
67147;DHT22;54061;52.036;5.558;2022-07-09T14:07:19;25.30;55.60
67147;DHT22;54061;52.036;5.558;2022-07-09T14:09:45;25.10;56.10
67147;DHT22;54061;52.036;5.558;2022-07-09T14:12:10;25.10;57.60
67147;DHT22;54061;52.036;5.558;2022-07-09T14:14:36;25.10;56.70
67147;DHT22;54061;52.036;5.558;2022-07-09T14:17:02;25.10;57.20
67147;DHT22;54061;52.036;5.558;2022-07-09T14:19:27;25.30;56.90
67147;DHT22;54061;52.036;5.558;2022-07-09T14:21:53;25.30;56.80
67147;DHT22;54061;52.036;5.558;2022-07-09T14:24:18;25.40;56.90
67147;DHT22;54061;52.036;5.558;2022-07-09T14:26:44;25.50;56.90
67147;DHT22;54061;52.036;5.558;2022-07-09T14:29:11;25.40;56.80
67147;DHT22;54061;52.036;5.558;2022-07-09T14:31:37;25.50;57.00
67147;DHT22;54061;52.036;5.558;2022-07-09T14:34:02;25.30;56.90
67147;DHT22;54061;52.036;5.558;2022-07-09T14:36:28;25.20;57.00
67147;DHT22;54061;52.036;5.558;2022-07-09T14:38:54;25.30;57.20
67147;DHT22;54061;52.036;5.558;2022-07-09T14:41:19;25.20;56.80
67147;DHT22;54061;52.036;5.558;2022-07-09T14:43:45;25.10;57.10
67147;DHT22;54061;52.036;5.558;2022-07-09T14:46:11;24.90;57.10
67147;DHT22;54061;52.036;5.558;2022-07-09T14:48:36;24.80;57.30
67147;DHT22;54061;52.036;5.558;2022-07-09T14:51:02;24.70;57.30
67147;DHT22;54061;52.036;5.558;2022-07-09T14:53:28;24.70;57.60
67147;DHT22;54061;52.036;5.558;2022-07-09T14:55:53;24.70;57.60
67147;DHT22;54061;52.036;5.558;2022-07-09T14:58:19;24.70;57.50
67147;DHT22;54061;52.036;5.558;2022-07-09T15:00:45;24.80;57.70
67147;DHT22;54061;52.036;5.558;2022-07-09T15:03:10;24.90;57.40
67147;DHT22;54061;52.036;5.558;2022-07-09T15:05:36;25.00;57.10
67147;DHT22;54061;52.036;5.558;2022-07-09T15:08:01;25.00;56.80
67147;DHT22;54061;52.036;5.558;2022-07-09T15:10:27;25.00;56.80
67147;DHT22;54061;52.036;5.558;2022-07-09T15:12:52;25.00;56.60
67147;DHT22;54061;52.036;5.558;2022-07-09T15:15:18;25.00;56.70
67147;DHT22;54061;52.036;5.558;2022-07-09T15:17:44;24.90;56.50
67147;DHT22;54061;52.036;5.558;2022-07-09T15:20:10;24.80;56.20
67147;DHT22;54061;52.036;5.558;2022-07-09T15:22:36;24.70;56.40
67147;DHT22;54061;52.036;5.558;2022-07-09T15:25:01;24.60;56.70
67147;DHT22;54061;52.036;5.558;2022-07-09T15:27:33;24.50;56.40
67147;DHT22;54061;52.036;5.558;2022-07-09T15:30:01;24.30;56.40
67147;DHT22;54061;52.036;5.558;2022-07-09T15:32:27;24.10;56.30